createdAt,value
2023-04-16T00:15:31.929Z,101323.95
2023-04-16T00:19:49.382Z,101326.66
2023-04-16T00:24:18.009Z,101331.11
2023-04-16T00:28:46.876Z,101331.05
2023-04-16T00:33:05.067Z,101335.55
2023-04-16T00:37:34.689Z,101342.16
2023-04-16T00:42:05.036Z,101340.67
2023-04-16T00:46:24.026Z,101342.48
2023-04-16T01:12:11.643Z,101347.58
2023-04-16T01:16:41.788Z,101352.20
2023-04-16T01:21:05.217Z,101352.63
2023-04-16T01:25:23.427Z,101353.13
2023-04-16T01:29:30.047Z,101355.04
2023-04-16T01:51:10.833Z,101347.86
2023-04-16T01:55:39.685Z,101348.14
2023-04-16T02:18:27.429Z,101356.23
2023-04-16T02:22:56.816Z,101356.56
2023-04-16T02:27:26.251Z,101358.23
2023-04-16T02:44:37.298Z,101365.44
2023-04-16T02:49:06.812Z,101366.75
2023-04-16T03:10:38.638Z,101378.02
2023-04-16T03:15:08.158Z,101377.56
2023-04-16T03:19:37.700Z,101384.62
2023-04-16T03:42:31.456Z,101389.20
2023-04-16T03:47:01.949Z,101391.21
2023-04-16T04:12:42.040Z,101419.10
2023-04-16T04:41:08.168Z,101440.04
2023-04-16T04:45:26.221Z,101444.84
2023-04-16T04:49:40.403Z,101449.61
2023-04-16T04:53:58.635Z,101450.34
2023-04-16T04:58:27.873Z,101449.31
2023-04-16T05:02:36.533Z,101451.29
2023-04-16T05:06:35.030Z,101452.22
2023-04-16T05:10:40.115Z,101455.14
2023-04-16T05:57:59.131Z,101494.09
2023-04-16T06:02:28.748Z,101500.41
2023-04-16T06:06:27.156Z,101505.64
2023-04-16T06:10:49.978Z,101511.27
2023-04-16T06:15:10.887Z,101514.31
2023-04-16T06:32:11.356Z,101525.31
2023-04-16T06:36:40.918Z,101535.16
2023-04-16T06:41:01.456Z,101538.35
2023-04-16T06:45:23.655Z,101541.92
2023-04-16T06:49:53.520Z,101544.73
2023-04-16T07:07:01.608Z,101546.73
2023-04-16T07:11:30.118Z,101552.37
2023-04-16T07:15:48.009Z,101553.52
2023-04-16T07:20:06.223Z,101553.68
2023-04-16T07:37:12.007Z,101561.83
2023-04-16T07:41:40.804Z,101568.23
2023-04-16T08:03:06.405Z,101580.91
2023-04-16T08:07:08.551Z,101575.89
2023-04-16T08:11:15.661Z,101580.61
2023-04-16T08:15:21.988Z,101585.35
2023-04-16T08:19:48.937Z,101591.11
2023-04-16T08:24:09.474Z,101594.31
2023-04-16T08:28:40.228Z,101603.34
2023-04-16T08:33:11.906Z,101610.79
2023-04-16T08:37:42.615Z,101620.67
2023-04-16T08:46:08.055Z,101633.89
2023-04-16T09:11:43.641Z,101641.40
2023-04-16T09:16:13.275Z,101648.92
2023-04-16T09:20:42.893Z,101652.38
2023-04-16T09:25:12.179Z,101659.17
2023-04-16T09:33:23.429Z,101669.82
2023-04-16T09:37:48.739Z,101668.20
2023-04-16T09:42:07.429Z,101670.48
2023-04-16T09:46:37.011Z,101669.27
2023-04-16T09:51:04.255Z,101674.42
2023-04-16T09:55:22.852Z,101679.88
2023-04-16T09:59:30.269Z,101679.23
2023-04-16T10:16:46.059Z,101693.63
2023-04-16T10:21:15.801Z,101696.25
2023-04-16T10:25:46.004Z,101704.08
2023-04-16T10:29:43.978Z,101710.83
2023-04-16T10:33:52.210Z,101711.13
2023-04-16T10:38:14.507Z,101713.22
2023-04-16T10:55:57.529Z,101712.73
2023-04-16T11:00:14.409Z,101712.42
2023-04-16T11:04:47.451Z,101716.37
2023-04-16T11:09:05.930Z,101718.39
2023-04-16T11:13:33.841Z,101717.48
2023-04-16T11:30:23.774Z,101717.28
2023-04-16T11:34:53.421Z,101722.14
2023-04-16T11:39:02.970Z,101726.91
2023-04-16T11:43:23.635Z,101726.88
2023-04-16T12:00:11.628Z,101733.84
2023-04-16T12:04:42.561Z,101738.44
2023-04-16T12:09:13.206Z,101737.76
2023-04-16T12:13:54.828Z,101745.67
2023-04-16T12:26:49.779Z,101751.45
2023-04-16T13:00:49.091Z,101762.52
2023-04-16T13:05:18.732Z,101765.40
2023-04-16T13:09:48.451Z,101768.68
2023-04-16T13:17:54.132Z,101769.76
2023-04-16T13:22:14.757Z,101770.48
2023-04-16T13:26:36.910Z,101770.36
2023-04-16T13:30:55.066Z,101776.75
2023-04-16T14:04:16.040Z,101790.53
2023-04-16T14:08:18.299Z,101791.13
2023-04-16T14:12:47.788Z,101795.30
2023-04-16T14:17:17.527Z,101796.10
2023-04-16T14:21:50.050Z,101799.39
2023-04-16T14:43:55.685Z,101803.59
2023-04-16T14:48:20.482Z,101802.92
2023-04-16T14:52:38.941Z,101804.38
2023-04-16T14:57:08.529Z,101805.33
2023-04-16T15:01:03.784Z,101805.98
2023-04-16T15:05:22.401Z,101803.45
2023-04-16T15:09:53.452Z,101806.23
2023-04-16T15:14:05.661Z,101813.63
2023-04-16T15:42:56.739Z,101836.89
2023-04-16T15:47:26.494Z,101839.00
2023-04-16T15:51:33.978Z,101841.46
2023-04-16T15:56:04.094Z,101845.42
2023-04-16T16:00:24.655Z,101847.77
2023-04-16T16:04:54.954Z,101851.75
2023-04-16T16:09:02.435Z,101854.45
2023-04-16T16:13:33.081Z,101851.01
2023-04-16T16:34:35.429Z,101867.08
2023-04-16T16:39:03.616Z,101876.17
2023-04-16T16:43:29.331Z,101875.35
2023-04-16T16:47:58.417Z,101877.41
2023-04-16T16:52:27.889Z,101882.23
2023-04-16T16:56:58.148Z,101888.77
2023-04-16T17:01:16.160Z,101890.16
2023-04-16T17:05:17.940Z,101894.98
2023-04-16T17:09:42.642Z,101900.17
2023-04-16T17:31:06.568Z,101915.52
2023-04-16T17:35:38.386Z,101921.98
2023-04-16T17:39:57.361Z,101922.89
2023-04-16T17:44:29.754Z,101927.75
2023-04-16T18:02:47.321Z,101948.23
2023-04-16T18:07:17.056Z,101945.58
2023-04-16T18:11:26.204Z,101949.90
2023-04-16T18:15:55.368Z,101950.35
2023-04-16T18:20:26.014Z,101957.70
2023-04-16T18:46:20.323Z,101993.95
2023-04-16T18:50:51.129Z,102002.98
2023-04-16T18:55:21.122Z,102006.88
2023-04-16T19:17:16.642Z,102013.70
2023-04-16T19:21:46.018Z,102017.09
2023-04-16T19:44:23.802Z,102032.23
2023-04-16T19:48:53.504Z,102031.61
2023-04-16T19:53:11.487Z,102033.19
2023-04-16T19:57:22.658Z,102035.80
2023-04-16T20:01:51.671Z,102041.73
2023-04-16T20:23:21.274Z,102048.50
2023-04-16T20:27:50.090Z,102050.02
2023-04-16T20:32:19.964Z,102052.05
2023-04-16T20:58:20.368Z,102067.25
2023-04-16T21:02:40.966Z,102070.92
2023-04-16T21:07:10.171Z,102070.63
2023-04-16T21:33:25.626Z,102079.77
2023-04-16T21:37:54.703Z,102078.77
2023-04-16T21:42:15.638Z,102083.98
2023-04-16T21:46:44.423Z,102086.42
2023-04-16T21:55:38.680Z,102086.31
2023-04-16T22:25:41.652Z,102101.20
2023-04-16T22:30:00.129Z,102096.26
2023-04-16T22:34:21.033Z,102100.86
2023-04-16T22:43:40.907Z,102106.19
2023-04-16T22:48:10.266Z,102105.01
2023-04-16T22:52:41.814Z,102105.13
2023-04-16T23:19:02.890Z,102106.08
2023-04-16T23:23:32.303Z,102106.71
2023-04-16T23:28:01.722Z,102107.19
2023-04-16T23:49:44.739Z,102107.21
2023-04-16T23:54:14.102Z,102103.96
2023-04-16T23:58:43.600Z,102106.83
